createdAt,value
2018-12-14T00:02:24.760Z,46.25
2018-12-14T00:04:54.135Z,57.40
2018-12-14T00:07:23.403Z,103.15
2018-12-14T00:09:53.080Z,123.05
2018-12-14T00:12:22.644Z,123.25
2018-12-14T00:14:52.104Z,117.13
2018-12-14T00:17:21.695Z,111.95
2018-12-14T00:37:13.315Z,101.80
2018-12-14T00:39:42.746Z,104.12
2018-12-14T00:42:12.002Z,96.53
2018-12-14T00:44:41.424Z,93.67
2018-12-14T00:47:10.868Z,128.95
2018-12-14T01:07:02.301Z,109.25
2018-12-14T01:09:32.001Z,113.47
2018-12-14T01:12:01.426Z,102.05
2018-12-14T01:14:30.742Z,104.70
2018-12-14T01:17:00.479Z,102.78
2018-12-14T01:19:29.775Z,105.72
2018-12-14T01:21:59.173Z,109.65
2018-12-14T01:41:50.456Z,121.30
2018-12-14T01:44:19.799Z,120.47
2018-12-14T01:46:49.235Z,131.72
2018-12-14T01:49:18.979Z,149.02
2018-12-14T01:51:48.225Z,137.30
2018-12-14T01:54:17.474Z,136.20
2018-12-14T01:56:46.967Z,131.00
2018-12-14T01:59:16.215Z,135.55
2018-12-14T02:01:45.826Z,131.43
2018-12-14T02:04:15.148Z,130.47
2018-12-14T02:06:44.448Z,113.32
2018-12-14T02:09:13.703Z,110.75
2018-12-14T02:11:43.018Z,97.75
2018-12-14T02:14:12.280Z,65.85
2018-12-14T02:16:41.896Z,55.15
2018-12-14T02:19:11.141Z,193.40
2018-12-14T02:44:49.161Z,17.50
2018-12-14T02:47:18.425Z,17.55
2018-12-14T02:49:47.812Z,15.63
2018-12-14T02:52:17.478Z,15.18
2018-12-14T03:12:07.585Z,33.45
2018-12-14T03:14:37.286Z,32.83
2018-12-14T03:17:06.671Z,47.93
2018-12-14T03:19:36.272Z,59.88
2018-12-14T03:22:06.009Z,67.35
2018-12-14T03:24:35.495Z,59.48
2018-12-14T03:27:04.779Z,67.45
2018-12-14T03:29:34.360Z,97.30
2018-12-14T03:32:03.737Z,129.23
2018-12-14T03:34:33.075Z,124.92
2018-12-14T03:37:02.742Z,130.12
2018-12-14T03:39:32.104Z,128.85
2018-12-14T03:42:06.837Z,109.37
2018-12-14T03:44:36.361Z,111.80
2018-12-14T03:47:05.747Z,114.05
2018-12-14T03:49:35.156Z,137.30
2018-12-14T03:52:04.635Z,135.45
2018-12-14T03:54:34.301Z,140.28
2018-12-14T04:14:26.179Z,81.05
2018-12-14T04:16:55.754Z,99.28
2018-12-14T04:19:25.328Z,77.15
2018-12-14T04:21:54.601Z,63.83
2018-12-14T04:24:26.088Z,64.10
2018-12-14T04:26:55.326Z,58.28
2018-12-14T04:29:24.570Z,59.98
2018-12-14T04:49:15.348Z,53.58
2018-12-14T04:51:44.713Z,54.23
2018-12-14T04:54:13.946Z,52.03
2018-12-14T04:56:43.608Z,47.50
2018-12-14T04:59:12.885Z,50.75
2018-12-14T05:19:03.772Z,49.50
2018-12-14T05:21:33.239Z,36.55
2018-12-14T05:24:02.638Z,40.05
2018-12-14T05:26:32.593Z,36.50
2018-12-14T05:46:25.206Z,43.42
2018-12-14T05:48:54.793Z,38.35
2018-12-14T05:51:24.477Z,35.88
2018-12-14T05:53:53.957Z,38.38
2018-12-14T05:56:23.450Z,31.62
2018-12-14T05:58:52.887Z,41.10
2018-12-14T06:01:22.136Z,36.90
2018-12-14T06:03:51.667Z,38.92
2018-12-14T06:06:21.278Z,36.00
2018-12-14T06:08:50.550Z,39.10
2018-12-14T06:11:20.070Z,41.55
2018-12-14T06:13:49.587Z,36.48
2018-12-14T06:16:19.505Z,39.98
2018-12-14T06:18:49.171Z,31.68
2018-12-14T06:21:18.615Z,31.37
2018-12-14T06:44:04.184Z,30.48
2018-12-14T07:03:54.700Z,30.88
2018-12-14T07:06:24.049Z,28.70
2018-12-14T07:08:53.476Z,29.25
2018-12-14T07:11:23.422Z,31.23
2018-12-14T07:31:15.807Z,26.05
2018-12-14T07:33:45.958Z,29.02
2018-12-14T07:36:15.289Z,31.27
2018-12-14T07:56:06.996Z,34.73
2018-12-14T07:58:36.510Z,36.80
2018-12-14T08:01:05.959Z,37.05
2018-12-14T08:03:35.764Z,39.18
2018-12-14T08:06:05.234Z,33.05
2018-12-14T08:08:34.541Z,31.97
2018-12-14T08:11:04.508Z,33.33
2018-12-14T08:30:56.551Z,29.82
2018-12-14T08:33:26.202Z,30.40
2018-12-14T08:35:55.684Z,33.98
2018-12-14T08:38:25.142Z,31.68
2018-12-14T08:40:54.981Z,32.70
2018-12-14T08:43:24.343Z,33.18
2018-12-14T08:45:55.071Z,32.58
2018-12-14T08:48:24.927Z,31.73
2018-12-14T08:50:54.500Z,32.85
2018-12-14T08:53:23.996Z,32.63
2018-12-14T08:55:53.656Z,33.00
2018-12-14T08:58:22.984Z,34.30
2018-12-14T09:00:52.834Z,30.40
2018-12-14T09:03:22.546Z,28.60
2018-12-14T09:05:51.813Z,33.35
2018-12-14T09:08:21.341Z,31.75
2018-12-14T09:10:51.132Z,33.00
2018-12-14T09:13:20.807Z,31.17
2018-12-14T09:15:50.262Z,29.65
2018-12-14T09:18:20.081Z,33.67
2018-12-14T09:20:49.647Z,32.53
2018-12-14T09:23:19.103Z,28.73
2018-12-14T09:25:48.739Z,27.00
2018-12-14T09:28:18.314Z,29.40
2018-12-14T09:30:47.825Z,27.15
2018-12-14T09:33:17.285Z,30.12
2018-12-14T09:53:08.358Z,36.28
2018-12-14T09:55:37.836Z,33.98
2018-12-14T09:58:07.260Z,30.65
2018-12-14T10:00:37.183Z,32.25
2018-12-14T10:03:06.857Z,28.85
2018-12-14T10:05:36.232Z,25.90
2018-12-14T10:08:05.600Z,26.50
2018-12-14T10:10:35.334Z,29.67
2018-12-14T10:13:04.846Z,32.20
2018-12-14T10:15:34.307Z,32.50
2018-12-14T10:18:04.283Z,30.43
2018-12-14T10:20:33.631Z,31.87
2018-12-14T10:23:03.125Z,29.02
2018-12-14T10:25:32.495Z,32.35
2018-12-14T10:28:02.045Z,26.68
2018-12-14T10:30:31.445Z,27.87
2018-12-14T10:33:01.178Z,31.97
2018-12-14T10:35:30.887Z,29.80
2018-12-14T10:38:00.372Z,30.97
2018-12-14T10:40:30.217Z,28.75
2018-12-14T10:42:59.742Z,28.20
2018-12-14T10:45:29.418Z,32.33
2018-12-14T10:47:59.253Z,28.00
2018-12-14T10:50:34.500Z,28.70
2018-12-14T10:52:58.359Z,30.57
2018-12-14T10:55:28.105Z,30.12
2018-12-14T10:57:57.534Z,32.00
2018-12-14T11:02:53.719Z,31.02
2018-12-14T11:05:23.195Z,28.55
2018-12-14T11:07:53.038Z,28.98
2018-12-14T11:10:22.568Z,31.55
2018-12-14T11:12:51.986Z,32.00
2018-12-14T11:15:21.269Z,29.60
2018-12-14T11:17:50.608Z,33.80
2018-12-14T11:20:20.147Z,32.35
2018-12-14T11:22:49.974Z,32.42
2018-12-14T11:25:19.608Z,33.55
2018-12-14T11:27:49.062Z,31.93
2018-12-14T11:30:25.261Z,32.60
2018-12-14T11:32:54.827Z,36.70
2018-12-14T11:35:24.391Z,34.10
2018-12-14T11:37:53.802Z,32.67
2018-12-14T11:40:23.377Z,35.43
2018-12-14T11:42:52.912Z,37.45
2018-12-14T11:45:22.422Z,35.00
2018-12-14T11:47:52.625Z,34.98
2018-12-14T11:50:22.067Z,36.20
2018-12-14T11:52:51.776Z,37.25
2018-12-14T11:55:21.289Z,38.48
2018-12-14T11:57:50.955Z,40.83
2018-12-14T12:00:20.668Z,38.60
2018-12-14T12:02:49.980Z,44.03
2018-12-14T12:05:19.412Z,43.92
2018-12-14T12:07:49.153Z,40.78
2018-12-14T12:10:18.787Z,42.13
2018-12-14T12:12:48.386Z,54.18
2018-12-14T12:15:18.108Z,42.17
2018-12-14T12:17:49.626Z,44.67
2018-12-14T12:20:17.182Z,42.25
2018-12-14T12:22:46.563Z,41.80
2018-12-14T12:25:16.156Z,38.73
2018-12-14T12:27:45.940Z,47.05
2018-12-14T12:30:16.208Z,47.80
2018-12-14T12:32:45.826Z,44.73
2018-12-14T12:35:15.530Z,43.80
2018-12-14T12:37:45.109Z,41.65
2018-12-14T12:40:14.451Z,40.78
2018-12-14T12:42:44.126Z,41.83
2018-12-14T12:45:13.532Z,40.67
2018-12-14T12:47:43.133Z,39.25
2018-12-14T12:50:12.639Z,40.45
2018-12-14T12:52:42.778Z,33.18
2018-12-14T12:55:12.241Z,34.65
2018-12-14T12:57:41.995Z,37.78
2018-12-14T13:00:11.462Z,33.60
2018-12-14T13:02:40.904Z,36.20
2018-12-14T13:05:10.660Z,38.13
2018-12-14T13:07:40.141Z,36.60
2018-12-14T13:10:09.705Z,43.30
2018-12-14T13:12:39.483Z,48.68
2018-12-14T13:15:09.104Z,35.88
2018-12-14T13:17:38.516Z,36.20
2018-12-14T13:20:08.208Z,33.63
2018-12-14T13:22:37.628Z,35.23
2018-12-14T13:25:07.075Z,37.70
2018-12-14T13:27:36.831Z,37.03
2018-12-14T13:30:06.697Z,34.88
2018-12-14T13:32:36.028Z,37.38
2018-12-14T13:35:05.930Z,45.38
2018-12-14T13:37:35.399Z,42.78
2018-12-14T13:40:05.464Z,43.65
2018-12-14T13:42:35.418Z,36.88
2018-12-14T13:45:05.075Z,39.50
2018-12-14T13:47:34.602Z,39.50
2018-12-14T13:50:05.317Z,36.42
2018-12-14T13:52:34.704Z,33.67
2018-12-14T13:55:04.528Z,39.70
2018-12-14T13:57:34.232Z,37.42
2018-12-14T14:00:03.775Z,34.25
2018-12-14T14:02:33.402Z,32.98
2018-12-14T14:05:02.874Z,34.20
2018-12-14T14:07:32.275Z,31.48
2018-12-14T14:10:02.714Z,29.80
2018-12-14T14:12:31.672Z,31.85
2018-12-14T14:15:01.410Z,32.83
2018-12-14T14:17:30.823Z,32.28
2018-12-14T14:20:00.777Z,28.12
2018-12-14T14:22:30.309Z,31.30
2018-12-14T14:24:59.763Z,30.50
2018-12-14T14:27:30.561Z,28.15
2018-12-14T14:30:00.248Z,32.42
2018-12-14T14:32:29.576Z,32.65
2018-12-14T14:34:59.350Z,32.98
2018-12-14T14:37:28.999Z,29.95
2018-12-14T14:39:58.516Z,29.12
2018-12-14T14:42:28.085Z,35.30
2018-12-14T14:44:59.951Z,34.80
2018-12-14T14:47:26.921Z,28.40
2018-12-14T14:51:22.166Z,33.33
2018-12-14T14:53:51.524Z,26.97
2018-12-14T14:56:20.917Z,29.90
2018-12-14T14:58:50.381Z,32.28
2018-12-14T15:01:19.724Z,31.12
2018-12-14T15:03:49.045Z,29.70
2018-12-14T15:06:18.813Z,31.25
2018-12-14T15:08:48.179Z,31.33
2018-12-14T15:11:17.784Z,31.45
2018-12-14T15:13:48.111Z,30.32
2018-12-14T15:16:17.711Z,29.92
2018-12-14T15:18:47.303Z,37.17
2018-12-14T15:21:16.835Z,31.87
2018-12-14T15:23:46.311Z,31.77
2018-12-14T15:26:15.860Z,35.98
2018-12-14T15:28:45.465Z,37.33
2018-12-14T15:31:14.831Z,34.60
2018-12-14T15:33:44.283Z,94.25
2018-12-14T15:36:13.938Z,51.00
2018-12-14T15:38:43.343Z,51.15
2018-12-14T15:41:15.542Z,45.52
2018-12-14T15:43:44.997Z,42.40
2018-12-14T15:46:14.432Z,35.78
2018-12-14T15:48:43.820Z,35.88
2018-12-14T15:51:15.387Z,34.67
2018-12-14T15:53:44.861Z,39.78
2018-12-14T15:56:14.263Z,41.68
2018-12-14T15:58:44.022Z,38.70
2018-12-14T16:01:15.104Z,37.70
2018-12-14T16:03:44.444Z,34.10
2018-12-14T16:06:13.763Z,37.85
2018-12-14T16:08:43.184Z,36.03
2018-12-14T16:11:12.518Z,40.23
2018-12-14T16:13:41.863Z,35.90
2018-12-14T16:16:11.194Z,35.15
2018-12-14T16:18:40.666Z,33.78
2018-12-14T16:21:09.943Z,34.63
2018-12-14T16:23:39.242Z,32.75
2018-12-14T16:26:08.645Z,34.60
2018-12-14T16:28:38.174Z,35.52
2018-12-14T16:31:08.006Z,38.78
2018-12-14T16:33:37.603Z,42.48
2018-12-14T16:36:06.986Z,38.73
2018-12-14T16:38:36.305Z,42.13
2018-12-14T16:41:05.841Z,38.40
2018-12-14T16:43:35.212Z,38.80
2018-12-14T16:46:04.705Z,41.98
2018-12-14T16:48:34.162Z,39.63
2018-12-14T16:51:03.557Z,42.40
2018-12-14T16:53:37.191Z,41.18
2018-12-14T16:56:07.007Z,43.65
2018-12-14T16:58:36.600Z,49.35
2018-12-14T17:01:06.064Z,37.30
2018-12-14T17:03:35.903Z,35.13
2018-12-14T17:06:05.732Z,32.90
2018-12-14T17:08:35.065Z,30.27
2018-12-14T17:11:04.587Z,29.77
2018-12-14T17:13:34.207Z,27.17
2018-12-14T17:16:03.730Z,27.10
2018-12-14T17:18:33.615Z,29.82
2018-12-14T17:21:03.273Z,28.10
2018-12-14T17:23:34.256Z,27.95
2018-12-14T17:26:02.591Z,28.32
2018-12-14T17:28:31.996Z,29.60
2018-12-14T17:31:01.606Z,30.40
2018-12-14T17:33:36.038Z,34.08
2018-12-14T17:36:00.910Z,32.50
2018-12-14T17:38:30.491Z,32.65
2018-12-14T17:41:00.113Z,30.45
2018-12-14T17:43:29.729Z,34.63
2018-12-14T17:45:59.434Z,73.33
2018-12-14T17:48:29.019Z,49.33
2018-12-14T17:50:58.748Z,29.55
2018-12-14T17:53:28.300Z,26.82
2018-12-14T17:55:58.071Z,26.42
2018-12-14T17:58:28.043Z,28.85
2018-12-14T18:00:58.508Z,27.27
2018-12-14T18:03:27.519Z,29.87
2018-12-14T18:05:56.995Z,29.67
2018-12-14T18:08:26.865Z,29.37
2018-12-14T18:10:56.301Z,26.33
2018-12-14T18:13:26.022Z,28.20
2018-12-14T18:15:55.693Z,63.17
2018-12-14T18:18:25.287Z,28.07
2018-12-14T18:20:55.226Z,44.23
2018-12-14T18:23:24.864Z,117.50
2018-12-14T18:25:54.585Z,32.67
2018-12-14T18:28:24.200Z,30.00
2018-12-14T18:30:53.697Z,28.10
2018-12-14T18:33:23.229Z,32.60
2018-12-14T18:35:52.595Z,28.60
2018-12-14T18:38:22.258Z,27.82
2018-12-14T18:40:52.086Z,28.77
2018-12-14T18:43:21.586Z,25.95
2018-12-14T18:45:53.330Z,27.10
2018-12-14T18:48:20.829Z,27.73
2018-12-14T18:50:50.484Z,25.97
2018-12-14T18:53:20.080Z,29.25
2018-12-14T18:55:49.779Z,30.75
2018-12-14T18:58:19.375Z,30.68
2018-12-14T19:00:48.880Z,27.30
2018-12-14T19:03:18.494Z,26.95
2018-12-14T19:05:48.043Z,28.12
2018-12-14T19:08:17.611Z,28.85
2018-12-14T19:10:47.411Z,26.25
2018-12-14T19:13:17.327Z,31.25
2018-12-14T19:15:47.036Z,28.02
2018-12-14T19:18:16.474Z,28.45
2018-12-14T19:20:46.165Z,28.15
2018-12-14T19:23:19.651Z,31.52
2018-12-14T19:25:45.389Z,29.55
2018-12-14T19:28:14.934Z,28.85
2018-12-14T19:30:44.525Z,31.00
2018-12-14T19:33:15.387Z,136.05
2018-12-14T19:35:45.016Z,47.50
2018-12-14T19:38:14.411Z,89.30
2018-12-14T19:40:43.954Z,38.02
2018-12-14T19:43:13.388Z,38.20
2018-12-14T19:45:43.076Z,33.25
2018-12-14T19:48:12.909Z,38.15
2018-12-14T19:50:42.604Z,35.95
2018-12-14T19:53:12.054Z,34.63
2018-12-14T19:55:41.806Z,37.08
2018-12-14T19:58:11.258Z,38.25
2018-12-14T20:00:41.187Z,37.90
2018-12-14T20:03:10.751Z,40.05
2018-12-14T20:05:40.271Z,39.67
2018-12-14T20:08:09.996Z,33.50
2018-12-14T20:10:39.464Z,31.55
2018-12-14T20:13:09.492Z,33.80
2018-12-14T20:15:39.110Z,40.48
2018-12-14T20:18:08.603Z,32.58
2018-12-14T20:20:38.295Z,37.80
2018-12-14T20:23:08.035Z,38.30
2018-12-14T20:25:37.771Z,56.70
2018-12-14T20:28:07.315Z,38.08
2018-12-14T20:30:36.811Z,48.45
2018-12-14T20:33:06.564Z,43.28
2018-12-14T20:35:37.325Z,45.35
2018-12-14T20:38:07.116Z,40.03
2018-12-14T20:40:38.893Z,46.23
2018-12-14T20:43:08.749Z,40.60
2018-12-14T20:45:38.289Z,41.48
2018-12-14T20:48:08.402Z,44.48
2018-12-14T20:50:38.207Z,48.05
2018-12-14T20:53:07.956Z,45.70
2018-12-14T20:55:38.484Z,50.20
2018-12-14T20:58:08.331Z,50.80
2018-12-14T21:00:39.375Z,54.30
2018-12-14T21:03:08.940Z,47.13
2018-12-14T21:05:38.782Z,42.30
2018-12-14T21:08:08.588Z,47.08
2018-12-14T21:10:38.011Z,156.75
2018-12-14T21:13:08.304Z,46.00
2018-12-14T21:15:38.675Z,45.85
2018-12-14T21:18:08.317Z,33.00
2018-12-14T21:20:38.011Z,34.33
2018-12-14T21:23:08.867Z,32.00
2018-12-14T21:25:38.970Z,32.73
2018-12-14T21:28:09.587Z,33.92
2018-12-14T21:30:41.174Z,33.20
2018-12-14T21:33:12.131Z,30.43
2018-12-14T21:35:42.000Z,29.98
2018-12-14T21:38:11.516Z,31.30
2018-12-14T21:40:41.251Z,31.02
2018-12-14T21:43:10.756Z,26.05
2018-12-14T21:45:40.431Z,30.08
2018-12-14T21:48:10.113Z,30.75
2018-12-14T21:50:39.915Z,30.32
2018-12-14T21:53:14.456Z,30.85
2018-12-14T21:55:39.200Z,46.30
2018-12-14T21:58:08.881Z,65.47
2018-12-14T22:00:38.539Z,49.77
2018-12-14T22:03:08.213Z,48.33
2018-12-14T22:05:37.938Z,30.20
2018-12-14T22:08:07.471Z,31.52
2018-12-14T22:10:36.867Z,30.08
2018-12-14T22:13:06.507Z,28.60
2018-12-14T22:15:36.045Z,29.67
2018-12-14T22:18:05.661Z,27.77
2018-12-14T22:20:40.889Z,25.97
2018-12-14T22:23:16.056Z,25.08
2018-12-14T22:25:45.192Z,23.42
2018-12-14T22:28:14.258Z,28.90
2018-12-14T22:30:43.173Z,26.07
2018-12-14T22:33:12.727Z,26.87
2018-12-14T22:35:42.527Z,193.32
2018-12-14T22:38:12.495Z,41.83
2018-12-14T22:40:42.135Z,32.48
2018-12-14T22:43:11.780Z,27.22
2018-12-14T22:45:41.471Z,24.67
2018-12-14T22:48:10.955Z,28.25
2018-12-14T22:50:40.510Z,23.87
2018-12-14T22:53:10.067Z,23.00
2018-12-14T22:55:39.631Z,19.95
2018-12-14T22:58:09.119Z,21.17
2018-12-14T23:00:42.800Z,21.70
2018-12-14T23:03:12.553Z,21.85
2018-12-14T23:05:42.023Z,22.70
2018-12-14T23:08:11.636Z,23.10
2018-12-14T23:10:41.007Z,22.85
2018-12-14T23:13:10.719Z,22.17
2018-12-14T23:15:40.495Z,23.77
2018-12-14T23:18:09.948Z,21.40
2018-12-14T23:20:39.679Z,21.95
2018-12-14T23:23:09.727Z,20.57
2018-12-14T23:25:39.205Z,21.35
2018-12-14T23:28:09.263Z,21.82
2018-12-14T23:30:38.719Z,21.75
2018-12-14T23:33:08.237Z,20.30
2018-12-14T23:35:37.628Z,23.77
2018-12-14T23:38:07.672Z,22.67
2018-12-14T23:40:37.493Z,20.85
2018-12-14T23:43:07.153Z,20.90
2018-12-14T23:45:36.999Z,22.32
2018-12-14T23:48:06.599Z,19.23
2018-12-14T23:50:36.216Z,21.02
2018-12-14T23:53:06.003Z,18.10
2018-12-14T23:55:35.425Z,22.70
2018-12-14T23:58:04.966Z,18.17
